** WELKOM OP ONZE WEBSITE MET ACTUELE WEERDATA VANUIT IZEGEM **
Het weer levert geen direct gevaar op.    Er zijn geen waarschuwingen afgegeven.

Weercam te Izegem Meer informatie Weercam te Izegem


Lokaal brand risico:
FWI


Regionaal brand risico: Meer informatie


Steun ons initiatief via een kleine donatie!



METAR rapporten vliegvelden

   
EBOS - Oostende Airport, Belgium
Afstand tot: NW 39 km
Gewijzigd: 24-08-2019 08:20
Gedeeltelijk bewolkt  
Gedeeltelijk bewolkt  
   Wind: Oosten 7.4 km/h
Wind: Oosten 7.4 km/h
Temperatuur: 17°C
Dauwpunt: 13°C
Vochtigheid: 77%
Barometer: 1021 hPa
Bewolking: Partly Cloudy
Zicht: 8 km
Bewolking: Gedeeltelijk bewolkt ft
EBOS 240620Z 09004KT 8000 NSC 17/13 Q1021 NOSIG
LFQQ - Lille/Lesquin, France
Afstand tot: Z 40 km
Gewijzigd: 24-08-2019 08:30
Gedeeltelijk bewolkt  
Gedeeltelijk bewolkt  
   Wind: varieert 1.9 km/h
Wind: varieert 1.9 km/h
Temperatuur: 16°C
Dauwpunt: 13°C
Vochtigheid: 83%
Barometer: 1020 hPa
Bewolking: Partly Cloudy
Zicht: 6 km
Bewolking: Gedeeltelijk bewolkt ft
LFQQ 240630Z AUTO VRB01KT 6000 NSC 16/13 Q1020 NOSIG
EBFN - Koksijde (bel-Af, Belgium
Afstand tot: WNW 43 km
Gewijzigd: 24-08-2019 08:25
Nevel, Helder  
Nevel, Helder  
   Wind: varieert 3.7 km/h
Wind: varieert 3.7 km/h
Temperatuur: 16°C
Dauwpunt: 13°C
Vochtigheid: 83%
Barometer: 1020 hPa
Bewolking: Clear
Zicht: 3 km
Bewolking: Helder ft
EBFN 240625Z AUTO VRB02KT 2800 BR NCD 16/13 Q1020 YLO
EBCV - Chievres Ab, Belgium
Afstand tot: ZO 59 km
Gewijzigd: 24-08-2019 08:33
Helder  
Helder  
   Wind: varieert 1.9 km/h
Wind: varieert 1.9 km/h
Temperatuur: 16°C
Dauwpunt: 13°C
Vochtigheid: 83%
Barometer: 1021 hPa
Bewolking: Clear
Zicht: 6 km
Bewolking: Helder ft
EBCV 240633Z AUTO VRB01KT 6000 NCD 16/13 Q1021 WHT
EHFS - Vlissingen, Netherlands
Afstand tot: NNO 65 km
Gewijzigd: 24-08-2019 08:25
Helder  
Helder  
   Wind: Oosten 9.3 km/h
Wind: Oosten 9.3 km/h
Temperatuur: 19°C
Dauwpunt: 14°C
Vochtigheid: 73%
Barometer: 1020 hPa
Bewolking: Clear
Zicht: meer dan 10 km
Bewolking: Helder ft
EHFS 240625Z AUTO 10005KT 060V120 9999 NCD 19/14 Q1020 W///H///
EBBR - Brussels Nationa, Belgium
Afstand tot: O 91 km
Gewijzigd: 24-08-2019 08:20
Helder  
Helder  
   Wind: OZO 1.9 km/h
Wind: OZO 1.9 km/h
Temperatuur: 17°C
Dauwpunt: 15°C
Vochtigheid: 88%
Barometer: 1021 hPa
Zicht: meer dan 10 km
Bewolking: Helder ft
EBBR 240620Z 12001KT CAVOK 17/15 Q1021 NOSIG
EBAW - Antwerp/Deurne, Belgium
Afstand tot: ONO 94 km
Gewijzigd: 24-08-2019 08:20
Helder  
Helder  
   Wind: OZO 5.6 km/h
Wind: OZO 5.6 km/h
Temperatuur: 16°C
Dauwpunt: 14°C
Vochtigheid: 88%
Barometer: 1021 hPa
Zicht: meer dan 10 km
Bewolking: Helder ft
EBAW 240620Z 11003KT CAVOK 16/14 Q1021 NOSIG
EHWO - Woensdrecht Rnla, Netherlands
Afstand tot: NO 98 km
Gewijzigd: 24-08-2019 08:25
Helder  
Helder  
   Wind: Oosten 5.6 km/h
Wind: Oosten 5.6 km/h
Temperatuur: 16°C
Dauwpunt: 12°C
Vochtigheid: 77%
Barometer: 1020 hPa
Bewolking: Clear
Zicht: meer dan 10 km
Bewolking: Helder ft
EHWO 240625Z AUTO 08003KT 040V110 9999 NCD 16/12 Q1020 BLU
EBCI - Charleroi/Gossel, Belgium
Afstand tot: OZO 102 km
Gewijzigd: 24-08-2019 08:20
Helder  
Helder  
   Wind: varieert 1.9 km/h
Wind: varieert 1.9 km/h
Temperatuur: 17°C
Dauwpunt: 12°C
Vochtigheid: 73%
Barometer: 1021 hPa
Zicht: meer dan 10 km
Bewolking: Helder ft
EBCI 240620Z VRB01KT CAVOK 17/12 Q1021 NOSIG

Script ontwikkeld door  Saratoga-weather.org Aangepast voor de template door  Weerstation Leuven